sensor_id;sensor_type;location;lat;lon;timestamp;pressure;altitude;pressure_sealevel;temperature;humidity
75157;BME280;63736;50.076;8.198;2023-09-30T00:01:49;100342.81;;;16.09;100.00
75157;BME280;63736;50.076;8.198;2023-09-30T00:04:17;100341.09;;;16.08;100.00
75157;BME280;63736;50.076;8.198;2023-09-30T00:06:42;100342.41;;;16.04;100.00
75157;BME280;63736;50.076;8.198;2023-09-30T00:09:07;100354.31;;;16.01;100.00
75157;BME280;63736;50.076;8.198;2023-09-30T00:11:33;100362.50;;;15.99;100.00
75157;BME280;63736;50.076;8.198;2023-09-30T00:13:58;100359.13;;;15.97;100.00
75157;BME280;63736;50.076;8.198;2023-09-30T00:16:23;100366.50;;;15.95;100.00
75157;BME280;63736;50.076;8.198;2023-09-30T00:18:48;100363.22;;;15.92;100.00
75157;BME280;63736;50.076;8.198;2023-09-30T00:21:14;100372.19;;;15.92;100.00
75157;BME280;63736;50.076;8.198;2023-09-30T00:23:40;100363.38;;;15.90;100.00
75157;BME280;63736;50.076;8.198;2023-09-30T00:26:05;100373.47;;;15.88;100.00
75157;BME280;63736;50.076;8.198;2023-09-30T00:28:30;100377.97;;;15.88;100.00
75157;BME280;63736;50.076;8.198;2023-09-30T00:30:56;100380.81;;;15.86;100.00
75157;BME280;63736;50.076;8.198;2023-09-30T00:33:21;100379.25;;;15.83;100.00
75157;BME280;63736;50.076;8.198;2023-09-30T00:35:47;100386.50;;;15.83;100.00
75157;BME280;63736;50.076;8.198;2023-09-30T00:38:12;100388.34;;;15.82;100.00
75157;BME280;63736;50.076;8.198;2023-09-30T00:40:37;100387.88;;;15.77;100.00
75157;BME280;63736;50.076;8.198;2023-09-30T00:43:03;100395.25;;;15.75;100.00
75157;BME280;63736;50.076;8.198;2023-09-30T00:45:29;100403.50;;;15.74;100.00
75157;BME280;63736;50.076;8.198;2023-09-30T00:47:55;100403.59;;;15.72;100.00
75157;BME280;63736;50.076;8.198;2023-09-30T00:50:21;100399.34;;;15.69;100.00
75157;BME280;63736;50.076;8.198;2023-09-30T00:52:46;100404.06;;;15.67;100.00
75157;BME280;63736;50.076;8.198;2023-09-30T00:55:14;100403.47;;;15.64;100.00
75157;BME280;63736;50.076;8.198;2023-09-30T00:57:40;100404.59;;;15.61;100.00
75157;BME280;63736;50.076;8.198;2023-09-30T01:00:06;100403.19;;;15.57;100.00
75157;BME280;63736;50.076;8.198;2023-09-30T01:02:32;100405.16;;;15.55;100.00
75157;BME280;63736;50.076;8.198;2023-09-30T01:05:00;100399.22;;;15.51;100.00
75157;BME280;63736;50.076;8.198;2023-09-30T01:07:26;100406.88;;;15.46;100.00
75157;BME280;63736;50.076;8.198;2023-09-30T01:09:51;100404.72;;;15.40;100.00
75157;BME280;63736;50.076;8.198;2023-09-30T01:12:17;100410.34;;;15.37;100.00
75157;BME280;63736;50.076;8.198;2023-09-30T01:14:42;100405.41;;;15.32;100.00
75157;BME280;63736;50.076;8.198;2023-09-30T01:17:07;100412.16;;;15.27;100.00
75157;BME280;63736;50.076;8.198;2023-09-30T01:19:39;100409.78;;;15.24;100.00
75157;BME280;63736;50.076;8.198;2023-09-30T01:22:05;100414.56;;;15.20;100.00
75157;BME280;63736;50.076;8.198;2023-09-30T01:24:30;100412.31;;;15.15;100.00
75157;BME280;63736;50.076;8.198;2023-09-30T01:26:56;100413.56;;;15.11;100.00
75157;BME280;63736;50.076;8.198;2023-09-30T01:29:21;100417.50;;;15.07;100.00
75157;BME280;63736;50.076;8.198;2023-09-30T01:31:48;100415.81;;;15.06;100.00
75157;BME280;63736;50.076;8.198;2023-09-30T01:34:14;100408.97;;;15.02;100.00
75157;BME280;63736;50.076;8.198;2023-09-30T01:36:41;100417.34;;;14.99;100.00
75157;BME280;63736;50.076;8.198;2023-09-30T01:39:07;100409.78;;;14.93;100.00
75157;BME280;63736;50.076;8.198;2023-09-30T01:41:32;100418.44;;;14.86;100.00
75157;BME280;63736;50.076;8.198;2023-09-30T01:43:58;100427.88;;;14.81;100.00
75157;BME280;63736;50.076;8.198;2023-09-30T01:46:23;100427.41;;;14.76;100.00
75157;BME280;63736;50.076;8.198;2023-09-30T01:48:48;100407.16;;;14.72;100.00
75157;BME280;63736;50.076;8.198;2023-09-30T01:51:13;100409.53;;;14.65;100.00
75157;BME280;63736;50.076;8.198;2023-09-30T01:53:39;100392.94;;;14.60;100.00
75157;BME280;63736;50.076;8.198;2023-09-30T01:56:04;100394.44;;;14.52;100.00
75157;BME280;63736;50.076;8.198;2023-09-30T01:58:30;100400.22;;;14.48;100.00
75157;BME280;63736;50.076;8.198;2023-09-30T02:01:02;100404.16;;;14.44;100.00
75157;BME280;63736;50.076;8.198;2023-09-30T02:03:27;100415.56;;;14.36;100.00
75157;BME280;63736;50.076;8.198;2023-09-30T02:05:54;100415.13;;;14.31;100.00
75157;BME280;63736;50.076;8.198;2023-09-30T02:08:19;100427.13;;;14.27;100.00
75157;BME280;63736;50.076;8.198;2023-09-30T02:10:44;100427.34;;;14.24;100.00
75157;BME280;63736;50.076;8.198;2023-09-30T02:13:10;100428.22;;;14.24;100.00
75157;BME280;63736;50.076;8.198;2023-09-30T02:15:35;100429.06;;;14.25;100.00
75157;BME280;63736;50.076;8.198;2023-09-30T02:18:04;100424.66;;;14.24;100.00
75157;BME280;63736;50.076;8.198;2023-09-30T02:20:29;100423.09;;;14.21;100.00
75157;BME280;63736;50.076;8.198;2023-09-30T02:22:56;100414.06;;;14.22;100.00
75157;BME280;63736;50.076;8.198;2023-09-30T02:25:22;100413.31;;;14.20;100.00
75157;BME280;63736;50.076;8.198;2023-09-30T02:27:49;100425.09;;;14.19;100.00
75157;BME280;63736;50.076;8.198;2023-09-30T02:30:15;100417.25;;;14.16;100.00
75157;BME280;63736;50.076;8.198;2023-09-30T02:32:42;100414.44;;;14.17;100.00
75157;BME280;63736;50.076;8.198;2023-09-30T02:35:08;100429.59;;;14.18;100.00
75157;BME280;63736;50.076;8.198;2023-09-30T02:37:37;100430.47;;;14.19;100.00
75157;BME280;63736;50.076;8.198;2023-09-30T02:40:04;100427.88;;;14.17;100.00
75157;BME280;63736;50.076;8.198;2023-09-30T02:42:39;100435.22;;;14.15;100.00
75157;BME280;63736;50.076;8.198;2023-09-30T02:45:06;100446.09;;;14.14;100.00
75157;BME280;63736;50.076;8.198;2023-09-30T02:47:34;100447.22;;;14.11;100.00
75157;BME280;63736;50.076;8.198;2023-09-30T02:49:59;100451.72;;;14.11;100.00
75157;BME280;63736;50.076;8.198;2023-09-30T02:52:25;100449.16;;;14.09;100.00
75157;BME280;63736;50.076;8.198;2023-09-30T02:54:50;100456.63;;;14.05;100.00
75157;BME280;63736;50.076;8.198;2023-09-30T02:57:17;100455.19;;;14.01;100.00
75157;BME280;63736;50.076;8.198;2023-09-30T02:59:43;100454.72;;;13.96;100.00
75157;BME280;63736;50.076;8.198;2023-09-30T03:02:09;100456.09;;;13.91;100.00
75157;BME280;63736;50.076;8.198;2023-09-30T03:04:34;100448.53;;;13.84;100.00
75157;BME280;63736;50.076;8.198;2023-09-30T03:07:00;100449.03;;;13.78;100.00
75157;BME280;63736;50.076;8.198;2023-09-30T03:09:25;100444.31;;;13.70;100.00
75157;BME280;63736;50.076;8.198;2023-09-30T03:11:51;100449.19;;;13.65;100.00
75157;BME280;63736;50.076;8.198;2023-09-30T03:14:16;100451.41;;;13.60;100.00
75157;BME280;63736;50.076;8.198;2023-09-30T03:16:41;100454.00;;;13.50;100.00
75157;BME280;63736;50.076;8.198;2023-09-30T03:19:08;100448.91;;;13.47;100.00
75157;BME280;63736;50.076;8.198;2023-09-30T03:21:35;100455.38;;;13.45;100.00
75157;BME280;63736;50.076;8.198;2023-09-30T03:24:03;100469.16;;;13.40;100.00
75157;BME280;63736;50.076;8.198;2023-09-30T03:26:29;100485.38;;;13.38;100.00
75157;BME280;63736;50.076;8.198;2023-09-30T03:28:55;100490.00;;;13.36;100.00
75157;BME280;63736;50.076;8.198;2023-09-30T03:31:20;100468.16;;;13.30;100.00
75157;BME280;63736;50.076;8.198;2023-09-30T03:33:46;100455.22;;;13.23;100.00
75157;BME280;63736;50.076;8.198;2023-09-30T03:36:13;100455.84;;;13.16;100.00
75157;BME280;63736;50.076;8.198;2023-09-30T03:38:38;100477.91;;;13.08;100.00
75157;BME280;63736;50.076;8.198;2023-09-30T03:41:04;100481.81;;;13.04;100.00
75157;BME280;63736;50.076;8.198;2023-09-30T03:43:33;100489.22;;;13.00;100.00
75157;BME280;63736;50.076;8.198;2023-09-30T03:45:59;100494.59;;;13.00;100.00
75157;BME280;63736;50.076;8.198;2023-09-30T03:48:25;100502.06;;;12.97;100.00
75157;BME280;63736;50.076;8.198;2023-09-30T03:50:51;100505.22;;;12.91;100.00
75157;BME280;63736;50.076;8.198;2023-09-30T03:53:17;100486.69;;;12.87;100.00
75157;BME280;63736;50.076;8.198;2023-09-30T03:55:42;100484.59;;;12.80;100.00
75157;BME280;63736;50.076;8.198;2023-09-30T03:58:08;100488.59;;;12.74;100.00
75157;BME280;63736;50.076;8.198;2023-09-30T04:00:33;100484.78;;;12.65;100.00
75157;BME280;63736;50.076;8.198;2023-09-30T04:02:58;100488.81;;;12.60;100.00
75157;BME280;63736;50.076;8.198;2023-09-30T04:05:25;100497.09;;;12.56;100.00
75157;BME280;63736;50.076;8.198;2023-09-30T04:07:58;100486.00;;;12.50;100.00
75157;BME280;63736;50.076;8.198;2023-09-30T04:10:23;100488.19;;;12.45;100.00
75157;BME280;63736;50.076;8.198;2023-09-30T04:12:49;100486.47;;;12.44;100.00
75157;BME280;63736;50.076;8.198;2023-09-30T04:15:14;100499.88;;;12.44;100.00
75157;BME280;63736;50.076;8.198;2023-09-30T04:17:40;100489.66;;;12.49;100.00
75157;BME280;63736;50.076;8.198;2023-09-30T04:20:06;100497.81;;;12.59;100.00
75157;BME280;63736;50.076;8.198;2023-09-30T04:22:35;100497.34;;;12.65;100.00
75157;BME280;63736;50.076;8.198;2023-09-30T04:25:01;100497.97;;;12.68;100.00
75157;BME280;63736;50.076;8.198;2023-09-30T04:27:26;100505.78;;;12.71;100.00
75157;BME280;63736;50.076;8.198;2023-09-30T04:29:52;100499.44;;;12.72;100.00
75157;BME280;63736;50.076;8.198;2023-09-30T04:32:18;100492.25;;;12.73;100.00
75157;BME280;63736;50.076;8.198;2023-09-30T04:34:44;100500.19;;;12.75;100.00
75157;BME280;63736;50.076;8.198;2023-09-30T04:37:12;100502.75;;;12.76;100.00
75157;BME280;63736;50.076;8.198;2023-09-30T04:39:38;100488.59;;;12.74;100.00
75157;BME280;63736;50.076;8.198;2023-09-30T04:42:04;100486.03;;;12.72;100.00
75157;BME280;63736;50.076;8.198;2023-09-30T04:44:30;100493.47;;;12.69;100.00
75157;BME280;63736;50.076;8.198;2023-09-30T04:46:55;100490.28;;;12.64;100.00
75157;BME280;63736;50.076;8.198;2023-09-30T04:49:21;100504.19;;;12.58;100.00
75157;BME280;63736;50.076;8.198;2023-09-30T04:51:46;100506.56;;;12.49;100.00
75157;BME280;63736;50.076;8.198;2023-09-30T04:54:14;100500.84;;;12.43;100.00
75157;BME280;63736;50.076;8.198;2023-09-30T04:56:39;100507.72;;;12.34;100.00
75157;BME280;63736;50.076;8.198;2023-09-30T04:59:04;100498.59;;;12.25;100.00
75157;BME280;63736;50.076;8.198;2023-09-30T05:01:30;100500.97;;;12.17;100.00
75157;BME280;63736;50.076;8.198;2023-09-30T05:03:55;100506.19;;;12.07;100.00
75157;BME280;63736;50.076;8.198;2023-09-30T05:06:20;100508.56;;;11.99;100.00
75157;BME280;63736;50.076;8.198;2023-09-30T05:08:46;100507.50;;;11.88;100.00
75157;BME280;63736;50.076;8.198;2023-09-30T05:11:12;100507.31;;;11.79;100.00
75157;BME280;63736;50.076;8.198;2023-09-30T05:13:37;100510.69;;;11.69;100.00
75157;BME280;63736;50.076;8.198;2023-09-30T05:16:03;100512.19;;;11.61;100.00
75157;BME280;63736;50.076;8.198;2023-09-30T05:18:28;100510.06;;;11.53;100.00
75157;BME280;63736;50.076;8.198;2023-09-30T05:20:54;100507.84;;;11.47;100.00
75157;BME280;63736;50.076;8.198;2023-09-30T05:23:20;100508.31;;;11.40;100.00
75157;BME280;63736;50.076;8.198;2023-09-30T05:25:45;100506.91;;;11.35;100.00
75157;BME280;63736;50.076;8.198;2023-09-30T05:28:11;100500.06;;;11.31;100.00
75157;BME280;63736;50.076;8.198;2023-09-30T05:30:37;100492.34;;;11.26;100.00
75157;BME280;63736;50.076;8.198;2023-09-30T05:33:02;100499.66;;;11.24;100.00
75157;BME280;63736;50.076;8.198;2023-09-30T05:35:28;100504.25;;;11.22;100.00
75157;BME280;63736;50.076;8.198;2023-09-30T05:37:53;100509.59;;;11.22;100.00
75157;BME280;63736;50.076;8.198;2023-09-30T05:40:20;100504.66;;;11.29;100.00
75157;BME280;63736;50.076;8.198;2023-09-30T05:42:55;100519.19;;;11.37;100.00
75157;BME280;63736;50.076;8.198;2023-09-30T05:45:23;100514.06;;;11.47;100.00
75157;BME280;63736;50.076;8.198;2023-09-30T05:47:48;100517.88;;;11.56;100.00
75157;BME280;63736;50.076;8.198;2023-09-30T05:50:14;100522.47;;;11.67;100.00
75157;BME280;63736;50.076;8.198;2023-09-30T05:52:42;100519.97;;;11.77;100.00
75157;BME280;63736;50.076;8.198;2023-09-30T05:55:10;100519.78;;;11.91;100.00
75157;BME280;63736;50.076;8.198;2023-09-30T05:57:36;100524.28;;;12.03;100.00
75157;BME280;63736;50.076;8.198;2023-09-30T06:00:02;100524.97;;;12.18;100.00
75157;BME280;63736;50.076;8.198;2023-09-30T06:02:46;100528.19;;;12.35;100.00
75157;BME280;63736;50.076;8.198;2023-09-30T06:05:12;100527.47;;;12.68;100.00
75157;BME280;63736;50.076;8.198;2023-09-30T06:07:37;100523.50;;;13.19;100.00
75157;BME280;63736;50.076;8.198;2023-09-30T06:10:03;100527.44;;;13.38;100.00
75157;BME280;63736;50.076;8.198;2023-09-30T06:12:29;100534.28;;;13.53;100.00
75157;BME280;63736;50.076;8.198;2023-09-30T06:14:54;100543.22;;;13.98;100.00
75157;BME280;63736;50.076;8.198;2023-09-30T06:17:19;100547.66;;;14.52;100.00
75157;BME280;63736;50.076;8.198;2023-09-30T06:19:47;100539.59;;;15.06;100.00
75157;BME280;63736;50.076;8.198;2023-09-30T06:22:15;100533.16;;;15.59;100.00
75157;BME280;63736;50.076;8.198;2023-09-30T06:24:41;100542.81;;;16.22;100.00
75157;BME280;63736;50.076;8.198;2023-09-30T06:27:06;100537.81;;;17.06;100.00
75157;BME280;63736;50.076;8.198;2023-09-30T06:29:32;100540.00;;;17.95;100.00
75157;BME280;63736;50.076;8.198;2023-09-30T06:31:58;100549.75;;;18.60;100.00
75157;BME280;63736;50.076;8.198;2023-09-30T06:34:24;100546.31;;;18.94;100.00
75157;BME280;63736;50.076;8.198;2023-09-30T06:36:49;100548.59;;;19.07;100.00
75157;BME280;63736;50.076;8.198;2023-09-30T06:39:14;100536.78;;;19.43;100.00
75157;BME280;63736;50.076;8.198;2023-09-30T06:41:39;100515.19;;;19.68;100.00
75157;BME280;63736;50.076;8.198;2023-09-30T06:44:05;100524.38;;;19.75;100.00
75157;BME280;63736;50.076;8.198;2023-09-30T06:46:30;100536.50;;;19.89;100.00
75157;BME280;63736;50.076;8.198;2023-09-30T06:48:56;100546.94;;;20.59;93.66
75157;BME280;63736;50.076;8.198;2023-09-30T06:51:21;100550.16;;;21.04;86.63
75157;BME280;63736;50.076;8.198;2023-09-30T06:53:46;100559.00;;;20.82;86.52
75157;BME280;63736;50.076;8.198;2023-09-30T06:56:12;100565.59;;;20.87;87.11
75157;BME280;63736;50.076;8.198;2023-09-30T06:58:38;100567.69;;;21.50;83.73
75157;BME280;63736;50.076;8.198;2023-09-30T07:01:03;100575.44;;;22.49;77.36
75157;BME280;63736;50.076;8.198;2023-09-30T07:03:29;100563.69;;;23.39;70.77
75157;BME280;63736;50.076;8.198;2023-09-30T07:05:55;100564.72;;;24.35;64.96
75157;BME280;63736;50.076;8.198;2023-09-30T07:08:22;100568.56;;;25.12;60.19
75157;BME280;63736;50.076;8.198;2023-09-30T07:10:47;100563.03;;;25.62;56.76
75157;BME280;63736;50.076;8.198;2023-09-30T07:13:16;100551.25;;;26.24;54.55
75157;BME280;63736;50.076;8.198;2023-09-30T07:15:41;100550.28;;;26.85;51.06
75157;BME280;63736;50.076;8.198;2023-09-30T07:18:06;100556.19;;;27.22;49.83
75157;BME280;63736;50.076;8.198;2023-09-30T07:20:32;100560.72;;;27.62;46.31
75157;BME280;63736;50.076;8.198;2023-09-30T07:23:01;100568.59;;;28.03;46.31
75157;BME280;63736;50.076;8.198;2023-09-30T07:25:26;100569.53;;;28.29;44.24
75157;BME280;63736;50.076;8.198;2023-09-30T07:27:52;100574.50;;;28.46;43.65
75157;BME280;63736;50.076;8.198;2023-09-30T07:30:17;100574.13;;;28.74;42.17
75157;BME280;63736;50.076;8.198;2023-09-30T07:32:43;100580.38;;;29.07;41.16
75157;BME280;63736;50.076;8.198;2023-09-30T07:35:09;100577.41;;;29.33;40.06
75157;BME280;63736;50.076;8.198;2023-09-30T07:37:35;100572.28;;;29.56;39.83
75157;BME280;63736;50.076;8.198;2023-09-30T07:40:00;100569.25;;;29.82;38.92
75157;BME280;63736;50.076;8.198;2023-09-30T07:42:25;100571.22;;;29.94;38.14
75157;BME280;63736;50.076;8.198;2023-09-30T07:44:51;100558.16;;;30.20;37.42
75157;BME280;63736;50.076;8.198;2023-09-30T07:47:16;100554.56;;;30.49;37.05
75157;BME280;63736;50.076;8.198;2023-09-30T07:49:42;100565.56;;;31.04;36.63
75157;BME280;63736;50.076;8.198;2023-09-30T07:52:07;100574.09;;;31.38;35.73
75157;BME280;63736;50.076;8.198;2023-09-30T07:54:33;100566.16;;;31.53;34.75
75157;BME280;63736;50.076;8.198;2023-09-30T07:56:59;100575.16;;;31.72;34.31
75157;BME280;63736;50.076;8.198;2023-09-30T07:59:24;100566.88;;;32.01;33.61
75157;BME280;63736;50.076;8.198;2023-09-30T08:01:50;100557.63;;;32.36;32.75
75157;BME280;63736;50.076;8.198;2023-09-30T08:04:17;100557.81;;;32.64;31.92
75157;BME280;63736;50.076;8.198;2023-09-30T08:06:43;100559.69;;;32.92;31.97
75157;BME280;63736;50.076;8.198;2023-09-30T08:09:08;100556.59;;;32.88;30.72
75157;BME280;63736;50.076;8.198;2023-09-30T08:11:36;100562.84;;;33.01;30.98
75157;BME280;63736;50.076;8.198;2023-09-30T08:14:03;100572.72;;;33.31;30.15
75157;BME280;63736;50.076;8.198;2023-09-30T08:16:34;100585.63;;;33.42;29.65
75157;BME280;63736;50.076;8.198;2023-09-30T08:18:59;100580.63;;;33.39;29.81
75157;BME280;63736;50.076;8.198;2023-09-30T08:21:25;100577.13;;;33.49;29.29
75157;BME280;63736;50.076;8.198;2023-09-30T08:23:50;100577.88;;;33.61;28.92
75157;BME280;63736;50.076;8.198;2023-09-30T08:26:15;100585.38;;;34.10;28.96
75157;BME280;63736;50.076;8.198;2023-09-30T08:28:41;100584.72;;;34.47;28.25
75157;BME280;63736;50.076;8.198;2023-09-30T08:31:06;100586.91;;;34.78;28.28
75157;BME280;63736;50.076;8.198;2023-09-30T08:33:32;100596.00;;;35.00;27.39
75157;BME280;63736;50.076;8.198;2023-09-30T08:36:03;100594.53;;;34.87;27.19
75157;BME280;63736;50.076;8.198;2023-09-30T08:38:36;100589.50;;;34.84;27.46
75157;BME280;63736;50.076;8.198;2023-09-30T08:41:01;100603.50;;;34.72;27.22
75157;BME280;63736;50.076;8.198;2023-09-30T08:43:27;100603.63;;;34.55;27.52
75157;BME280;63736;50.076;8.198;2023-09-30T08:45:56;100612.78;;;34.51;27.56
75157;BME280;63736;50.076;8.198;2023-09-30T08:48:28;100612.88;;;34.61;27.46
75157;BME280;63736;50.076;8.198;2023-09-30T08:50:54;100608.28;;;34.77;27.37
75157;BME280;63736;50.076;8.198;2023-09-30T08:53:23;100610.69;;;34.96;26.92
75157;BME280;63736;50.076;8.198;2023-09-30T08:55:52;100608.25;;;34.72;27.46
75157;BME280;63736;50.076;8.198;2023-09-30T08:58:19;100606.59;;;34.44;27.26
75157;BME280;63736;50.076;8.198;2023-09-30T09:00:45;100605.38;;;34.62;27.17
75157;BME280;63736;50.076;8.198;2023-09-30T09:03:11;100606.50;;;34.66;26.94
75157;BME280;63736;50.076;8.198;2023-09-30T09:05:36;100605.84;;;34.53;27.28
75157;BME280;63736;50.076;8.198;2023-09-30T09:08:02;100607.59;;;34.60;27.51
75157;BME280;63736;50.076;8.198;2023-09-30T09:10:27;100613.63;;;34.29;27.85
75157;BME280;63736;50.076;8.198;2023-09-30T09:12:57;100618.25;;;33.96;27.89
75157;BME280;63736;50.076;8.198;2023-09-30T09:15:24;100607.13;;;33.74;28.02
75157;BME280;63736;50.076;8.198;2023-09-30T09:17:50;100606.78;;;33.48;28.27
75157;BME280;63736;50.076;8.198;2023-09-30T09:20:18;100612.09;;;33.16;28.97
75157;BME280;63736;50.076;8.198;2023-09-30T09:22:49;100618.88;;;32.74;29.31
75157;BME280;63736;50.076;8.198;2023-09-30T09:25:19;100614.25;;;32.34;30.03
75157;BME280;63736;50.076;8.198;2023-09-30T09:27:45;100611.34;;;32.00;30.50
75157;BME280;63736;50.076;8.198;2023-09-30T09:30:20;100602.44;;;31.33;31.36
75157;BME280;63736;50.076;8.198;2023-09-30T09:33:00;100614.28;;;30.56;32.13
75157;BME280;63736;50.076;8.198;2023-09-30T09:35:26;100619.38;;;29.91;33.39
75157;BME280;63736;50.076;8.198;2023-09-30T09:38:07;100607.44;;;29.35;34.06
75157;BME280;63736;50.076;8.198;2023-09-30T09:40:37;100607.78;;;28.95;34.87
75157;BME280;63736;50.076;8.198;2023-09-30T09:43:06;100599.13;;;28.66;34.95
75157;BME280;63736;50.076;8.198;2023-09-30T09:45:35;100599.06;;;28.41;35.49
75157;BME280;63736;50.076;8.198;2023-09-30T09:48:03;100602.59;;;28.16;36.04
75157;BME280;63736;50.076;8.198;2023-09-30T09:50:30;100609.00;;;27.83;36.54
75157;BME280;63736;50.076;8.198;2023-09-30T09:52:58;100608.25;;;27.49;36.93
75157;BME280;63736;50.076;8.198;2023-09-30T09:55:26;100592.88;;;27.01;37.54
75157;BME280;63736;50.076;8.198;2023-09-30T09:57:53;100588.81;;;26.70;38.71
75157;BME280;63736;50.076;8.198;2023-09-30T10:00:25;100590.28;;;26.39;39.30
75157;BME280;63736;50.076;8.198;2023-09-30T10:02:52;100586.72;;;25.90;40.00
75157;BME280;63736;50.076;8.198;2023-09-30T10:05:18;100583.91;;;25.35;40.95
75157;BME280;63736;50.076;8.198;2023-09-30T10:07:52;100576.38;;;24.87;42.17
75157;BME280;63736;50.076;8.198;2023-09-30T10:10:20;100566.91;;;24.46;42.96
75157;BME280;63736;50.076;8.198;2023-09-30T10:12:47;100572.41;;;24.09;43.68
75157;BME280;63736;50.076;8.198;2023-09-30T10:18:00;100574.53;;;23.48;45.36
75157;BME280;63736;50.076;8.198;2023-09-30T10:20:33;100573.50;;;23.34;45.57
75157;BME280;63736;50.076;8.198;2023-09-30T10:23:22;100569.09;;;23.09;46.52
75157;BME280;63736;50.076;8.198;2023-09-30T10:25:51;100566.16;;;22.81;47.35
75157;BME280;63736;50.076;8.198;2023-09-30T10:28:42;100565.13;;;22.59;47.50
75157;BME280;63736;50.076;8.198;2023-09-30T10:31:21;100568.09;;;22.49;46.95
75157;BME280;63736;50.076;8.198;2023-09-30T10:36:38;100572.03;;;22.47;46.44
75157;BME280;63736;50.076;8.198;2023-09-30T10:39:05;100565.91;;;22.44;47.05
75157;BME280;63736;50.076;8.198;2023-09-30T10:44:36;100563.06;;;22.61;45.64
75157;BME280;63736;50.076;8.198;2023-09-30T10:47:42;100569.59;;;22.75;45.50
75157;BME280;63736;50.076;8.198;2023-09-30T10:53:11;100567.69;;;22.60;44.64
75157;BME280;63736;50.076;8.198;2023-09-30T10:55:37;100563.56;;;22.65;44.54
75157;BME280;63736;50.076;8.198;2023-09-30T10:58:02;100563.78;;;22.78;44.94
75157;BME280;63736;50.076;8.198;2023-09-30T11:00:28;100557.50;;;22.92;43.79
75157;BME280;63736;50.076;8.198;2023-09-30T11:02:55;100563.81;;;22.93;43.58
75157;BME280;63736;50.076;8.198;2023-09-30T11:05:20;100555.72;;;22.85;43.33
75157;BME280;63736;50.076;8.198;2023-09-30T11:07:48;100564.56;;;22.87;43.90
75157;BME280;63736;50.076;8.198;2023-09-30T11:10:16;100570.00;;;22.87;44.39
75157;BME280;63736;50.076;8.198;2023-09-30T11:12:54;100557.84;;;22.74;44.53
75157;BME280;63736;50.076;8.198;2023-09-30T11:15:19;100556.59;;;22.62;44.93
75157;BME280;63736;50.076;8.198;2023-09-30T11:17:44;100571.31;;;22.53;45.22
75157;BME280;63736;50.076;8.198;2023-09-30T11:20:10;100563.47;;;22.50;45.41
75157;BME280;63736;50.076;8.198;2023-09-30T11:22:36;100563.78;;;22.55;45.72
75157;BME280;63736;50.076;8.198;2023-09-30T11:25:01;100563.91;;;22.61;45.62
75157;BME280;63736;50.076;8.198;2023-09-30T11:27:28;100558.28;;;22.63;44.35
75157;BME280;63736;50.076;8.198;2023-09-30T11:29:54;100558.22;;;22.71;43.96
75157;BME280;63736;50.076;8.198;2023-09-30T11:32:27;100563.53;;;22.88;43.01
75157;BME280;63736;50.076;8.198;2023-09-30T11:34:53;100565.03;;;22.90;41.96
75157;BME280;63736;50.076;8.198;2023-09-30T11:37:18;100562.66;;;22.87;42.20
75157;BME280;63736;50.076;8.198;2023-09-30T11:39:44;100566.44;;;22.86;42.57
75157;BME280;63736;50.076;8.198;2023-09-30T11:42:17;100562.75;;;22.79;41.99
75157;BME280;63736;50.076;8.198;2023-09-30T11:44:46;100558.31;;;22.78;42.19
75157;BME280;63736;50.076;8.198;2023-09-30T11:47:13;100550.53;;;22.75;42.67
75157;BME280;63736;50.076;8.198;2023-09-30T11:49:41;100552.47;;;22.66;42.31
75157;BME280;63736;50.076;8.198;2023-09-30T11:52:11;100557.09;;;22.66;41.38
75157;BME280;63736;50.076;8.198;2023-09-30T11:54:41;100562.84;;;22.71;40.98
75157;BME280;63736;50.076;8.198;2023-09-30T11:57:08;100557.78;;;22.83;41.47
75157;BME280;63736;50.076;8.198;2023-09-30T11:59:35;100553.38;;;22.97;41.49
75157;BME280;63736;50.076;8.198;2023-09-30T12:02:01;100549.13;;;23.17;41.25
75157;BME280;63736;50.076;8.198;2023-09-30T12:04:26;100554.88;;;23.37;41.66
75157;BME280;63736;50.076;8.198;2023-09-30T12:06:52;100546.88;;;23.51;41.68
75157;BME280;63736;50.076;8.198;2023-09-30T12:09:18;100550.06;;;23.39;41.42
75157;BME280;63736;50.076;8.198;2023-09-30T12:11:50;100548.09;;;23.18;41.54
75157;BME280;63736;50.076;8.198;2023-09-30T12:14:15;100543.63;;;23.02;42.22
75157;BME280;63736;50.076;8.198;2023-09-30T12:16:41;100540.69;;;22.89;42.69
75157;BME280;63736;50.076;8.198;2023-09-30T12:19:09;100535.69;;;22.77;42.30
75157;BME280;63736;50.076;8.198;2023-09-30T12:21:35;100537.25;;;22.72;42.59
75157;BME280;63736;50.076;8.198;2023-09-30T12:24:02;100534.53;;;22.72;41.99
75157;BME280;63736;50.076;8.198;2023-09-30T12:26:29;100528.06;;;22.73;42.05
75157;BME280;63736;50.076;8.198;2023-09-30T12:28:55;100528.06;;;22.73;42.05
75157;BME280;63736;50.076;8.198;2023-09-30T12:31:20;100527.03;;;22.74;41.11
75157;BME280;63736;50.076;8.198;2023-09-30T12:33:46;100524.03;;;22.69;41.20
75157;BME280;63736;50.076;8.198;2023-09-30T12:36:15;100525.31;;;22.58;41.78
75157;BME280;63736;50.076;8.198;2023-09-30T12:38:41;100517.34;;;22.56;41.45
75157;BME280;63736;50.076;8.198;2023-09-30T12:41:07;100532.28;;;22.60;40.56
75157;BME280;63736;50.076;8.198;2023-09-30T12:43:32;100521.53;;;22.59;39.68
75157;BME280;63736;50.076;8.198;2023-09-30T12:45:57;100517.59;;;22.61;39.89
75157;BME280;63736;50.076;8.198;2023-09-30T12:48:22;100511.53;;;22.59;39.62
75157;BME280;63736;50.076;8.198;2023-09-30T12:50:48;100525.84;;;22.53;40.25
75157;BME280;63736;50.076;8.198;2023-09-30T12:53:13;100522.66;;;22.50;40.85
75157;BME280;63736;50.076;8.198;2023-09-30T12:55:39;100521.69;;;22.42;41.38